createdAt,value
2023-01-27T00:00:01.262Z,1020.3
2023-01-27T00:01:01.236Z,1020.28
2023-01-27T00:02:01.342Z,1020.3
2023-01-27T00:03:01.410Z,1020.26
2023-01-27T00:04:02.318Z,1020.29
2023-01-27T00:05:01.106Z,1020.27
2023-01-27T00:06:01.424Z,1020.28
2023-01-27T00:07:02.025Z,1020.25
2023-01-27T00:08:01.237Z,1020.22
2023-01-27T00:09:01.101Z,1020.23
2023-01-27T00:10:01.141Z,1020.22
2023-01-27T00:11:01.611Z,1020.23
2023-01-27T00:12:01.212Z,1020.24
2023-01-27T00:13:01.176Z,1020.27
2023-01-27T00:14:01.169Z,1020.28
2023-01-27T00:15:01.108Z,1020.22
2023-01-27T00:16:01.212Z,1020.27
2023-01-27T00:17:01.076Z,1020.22
2023-01-27T00:18:01.110Z,1020.25
2023-01-27T00:19:01.111Z,1020.2
2023-01-27T00:20:03.836Z,1020.23
2023-01-27T00:21:01.060Z,1020.21
2023-01-27T00:22:01.115Z,1020.14
2023-01-27T00:23:01.119Z,1020.15
2023-01-27T00:24:01.174Z,1020.13
2023-01-27T00:25:01.124Z,1020.2
2023-01-27T00:26:01.129Z,1020.19
2023-01-27T00:27:01.575Z,1020.17
2023-01-27T00:28:01.260Z,1020.14
2023-01-27T00:29:01.158Z,1020.12
2023-01-27T00:30:08.028Z,1020.18
2023-01-27T00:31:04.647Z,1020.18
2023-01-27T00:32:01.671Z,1020.12
2023-01-27T00:33:01.799Z,1020.13
2023-01-27T00:34:02.133Z,1020.13
2023-01-27T00:35:01.803Z,1020.14
2023-01-27T00:36:01.434Z,1020.15
2023-01-27T00:37:01.072Z,1020.15
2023-01-27T00:38:01.159Z,1020.1
2023-01-27T00:39:01.331Z,1020.17
2023-01-27T00:40:01.238Z,1020.15
2023-01-27T00:41:01.249Z,1020.17
2023-01-27T00:42:01.185Z,1020.17
2023-01-27T00:43:01.198Z,1020.17
2023-01-27T00:44:01.161Z,1020.17
2023-01-27T00:45:01.154Z,1020.18
2023-01-27T00:46:01.165Z,1020.17
2023-01-27T00:47:01.138Z,1020.16
2023-01-27T00:48:01.074Z,1020.15
2023-01-27T00:49:01.459Z,1020.17
2023-01-27T00:50:01.194Z,1020.17
2023-01-27T00:51:02.807Z,1020.15
2023-01-27T00:52:01.813Z,1020.14
2023-01-27T00:53:01.913Z,1020.15
2023-01-27T00:54:02.553Z,1020.13
2023-01-27T00:55:01.616Z,1020.16
2023-01-27T00:56:07.672Z,1020.1
2023-01-27T00:57:03.731Z,1020.11
2023-01-27T00:58:01.342Z,1020.16
2023-01-27T00:59:01.289Z,1020.14
2023-01-27T01:00:01.169Z,1020.14
2023-01-27T01:01:11.551Z,1020.18
2023-01-27T01:02:01.321Z,1020.15
2023-01-27T01:03:01.133Z,1020.2
2023-01-27T01:04:01.071Z,1020.2
2023-01-27T01:05:01.084Z,1020.19
2023-01-27T01:06:15.571Z,1020.21
2023-01-27T01:07:01.471Z,1020.25
2023-01-27T01:08:02.120Z,1020.23
2023-01-27T01:09:01.246Z,1020.27
2023-01-27T01:10:01.210Z,1020.25
2023-01-27T01:11:01.111Z,1020.26
2023-01-27T01:12:01.130Z,1020.24
2023-01-27T01:13:01.126Z,1020.25
2023-01-27T01:14:01.185Z,1020.22
2023-01-27T01:15:01.048Z,1020.22
2023-01-27T01:16:01.200Z,1020.24
2023-01-27T01:17:01.265Z,1020.24
2023-01-27T01:18:01.145Z,1020.2
2023-01-27T01:19:01.175Z,1020.22
2023-01-27T01:20:01.795Z,1020.24
2023-01-27T01:21:01.792Z,1020.24
2023-01-27T01:22:04.219Z,1020.28
2023-01-27T01:23:02.145Z,1020.21
2023-01-27T01:24:01.643Z,1020.22
2023-01-27T01:25:01.401Z,1020.27
2023-01-27T01:26:02.925Z,1020.24
2023-01-27T01:27:01.114Z,1020.23
2023-01-27T01:28:01.143Z,1020.27
2023-01-27T01:29:01.146Z,1020.25
2023-01-27T01:30:01.105Z,1020.26
2023-01-27T01:31:01.340Z,1020.28
2023-01-27T01:32:01.590Z,1020.32
2023-01-27T01:33:01.225Z,1020.32
2023-01-27T01:34:01.225Z,1020.33
2023-01-27T01:35:01.175Z,1020.29
2023-01-27T01:36:00.845Z,1020.32
2023-01-27T01:37:00.460Z,1020.34
2023-01-27T01:38:00.056Z,1020.33
2023-01-27T01:39:00.044Z,1020.33
2023-01-27T01:39:59.893Z,1020.36
2023-01-27T01:40:59.490Z,1020.35
2023-01-27T01:42:01.215Z,1020.35
2023-01-27T01:43:01.125Z,1020.26
2023-01-27T01:44:01.129Z,1020.34
2023-01-27T01:45:01.149Z,1020.29
2023-01-27T01:46:01.150Z,1020.37
2023-01-27T01:47:01.200Z,1020.38
2023-01-27T01:48:01.410Z,1020.32
2023-01-27T01:49:00.925Z,1020.35
2023-01-27T01:50:00.914Z,1020.32
2023-01-27T01:51:00.931Z,1020.27
2023-01-27T01:52:01.059Z,1020.3
2023-01-27T01:53:01.119Z,1020.35
2023-01-27T01:54:01.072Z,1020.29
2023-01-27T01:55:01.096Z,1020.25
2023-01-27T01:56:01.104Z,1020.29
2023-01-27T01:57:01.164Z,1020.3
2023-01-27T01:58:01.153Z,1020.29
2023-01-27T01:59:01.891Z,1020.28
2023-01-27T02:00:01.125Z,1020.32
2023-01-27T02:01:01.527Z,1020.34
2023-01-27T02:02:01.361Z,1020.35
2023-01-27T02:03:01.298Z,1020.37
2023-01-27T02:04:02.683Z,1020.37
2023-01-27T02:05:01.127Z,1020.38
2023-01-27T02:06:01.148Z,1020.41
2023-01-27T02:07:01.154Z,1020.38
2023-01-27T02:08:01.190Z,1020.4
2023-01-27T02:09:01.068Z,1020.38
2023-01-27T02:10:01.139Z,1020.38
2023-01-27T02:11:01.091Z,1020.36
2023-01-27T02:12:01.089Z,1020.38
2023-01-27T02:13:01.099Z,1020.41
2023-01-27T02:14:01.098Z,1020.4
2023-01-27T02:15:01.808Z,1020.4
2023-01-27T02:16:01.112Z,1020.38
2023-01-27T02:17:01.498Z,1020.37
2023-01-27T02:18:01.641Z,1020.37
2023-01-27T02:19:01.442Z,1020.39
2023-01-27T02:20:01.337Z,1020.38
2023-01-27T02:21:01.196Z,1020.39
2023-01-27T02:22:01.163Z,1020.36
2023-01-27T02:23:02.094Z,1020.4
2023-01-27T02:24:01.427Z,1020.36
2023-01-27T02:25:01.117Z,1020.38
2023-01-27T02:26:01.168Z,1020.33
2023-01-27T02:27:01.561Z,1020.3
2023-01-27T02:28:01.633Z,1020.32
2023-01-27T02:29:01.656Z,1020.26
2023-01-27T02:30:01.137Z,1020.31
2023-01-27T02:31:01.170Z,1020.3
2023-01-27T02:32:03.561Z,1020.3
2023-01-27T02:33:02.261Z,1020.31
2023-01-27T02:34:01.132Z,1020.28
2023-01-27T02:35:01.737Z,1020.33
2023-01-27T02:36:01.471Z,1020.29
2023-01-27T02:37:06.991Z,1020.32
2023-01-27T02:38:01.147Z,1020.35
2023-01-27T02:39:01.107Z,1020.36
2023-01-27T02:40:01.353Z,1020.4
2023-01-27T02:41:01.218Z,1020.37
2023-01-27T02:42:09.412Z,1020.42
2023-01-27T02:43:02.499Z,1020.38
2023-01-27T02:44:02.614Z,1020.44
2023-01-27T02:45:01.086Z,1020.48
2023-01-27T02:46:01.184Z,1020.46
2023-01-27T02:47:14.203Z,1020.44
2023-01-27T02:48:01.579Z,1020.49
2023-01-27T02:49:01.072Z,1020.48
2023-01-27T02:50:01.128Z,1020.51
2023-01-27T02:51:01.134Z,1020.5
2023-01-27T02:52:16.488Z,1020.49
2023-01-27T02:53:01.335Z,1020.48
2023-01-27T02:54:01.852Z,1020.49
2023-01-27T02:55:01.375Z,1020.48
2023-01-27T02:56:01.156Z,1020.47
2023-01-27T02:57:00.887Z,1020.47
2023-01-27T02:58:01.085Z,1020.45
2023-01-27T02:59:01.075Z,1020.49
2023-01-27T03:00:01.397Z,1020.48
2023-01-27T03:01:01.481Z,1020.47
2023-01-27T03:02:02.088Z,1020.52
2023-01-27T03:03:01.788Z,1020.51
2023-01-27T03:04:01.112Z,1020.49
2023-01-27T03:05:01.050Z,1020.55
2023-01-27T03:06:01.142Z,1020.51
2023-01-27T03:07:02.353Z,1020.54
2023-01-27T03:08:01.493Z,1020.54
2023-01-27T03:09:01.462Z,1020.56
2023-01-27T03:10:01.119Z,1020.58
2023-01-27T03:11:01.917Z,1020.6
2023-01-27T03:12:01.659Z,1020.62
2023-01-27T03:13:01.452Z,1020.59
2023-01-27T03:14:01.093Z,1020.58
2023-01-27T03:15:00.319Z,1020.58
2023-01-27T03:16:00.020Z,1020.57
2023-01-27T03:16:59.921Z,1020.6
2023-01-27T03:17:59.533Z,1020.58
2023-01-27T03:19:01.117Z,1020.61
2023-01-27T03:20:01.110Z,1020.6
2023-01-27T03:21:01.109Z,1020.62
2023-01-27T03:22:01.106Z,1020.64
2023-01-27T03:23:01.230Z,1020.63
2023-01-27T03:24:01.333Z,1020.65
2023-01-27T03:25:01.374Z,1020.65
2023-01-27T03:26:01.132Z,1020.72
2023-01-27T03:27:01.140Z,1020.72
2023-01-27T03:28:01.163Z,1020.74
2023-01-27T03:29:01.049Z,1020.72
2023-01-27T03:30:01.252Z,1020.73
2023-01-27T03:31:01.425Z,1020.73
2023-01-27T03:32:01.590Z,1020.76
2023-01-27T03:33:01.750Z,1020.77
2023-01-27T03:34:01.812Z,1020.77
2023-01-27T03:35:01.809Z,1020.78
2023-01-27T03:36:01.762Z,1020.77
2023-01-27T03:37:01.097Z,1020.79
2023-01-27T03:38:01.536Z,1020.78
2023-01-27T03:39:01.026Z,1020.81
2023-01-27T03:40:01.189Z,1020.79
2023-01-27T03:41:01.135Z,1020.74
2023-01-27T03:42:01.131Z,1020.72
2023-01-27T03:43:01.139Z,1020.74
2023-01-27T03:44:01.063Z,1020.76
2023-01-27T03:45:01.154Z,1020.76
2023-01-27T03:46:01.274Z,1020.77
2023-01-27T03:47:01.314Z,1020.76
2023-01-27T03:48:01.084Z,1020.76
2023-01-27T03:49:01.113Z,1020.78
2023-01-27T03:50:01.105Z,1020.79
2023-01-27T03:51:01.386Z,1020.72
2023-01-27T03:52:01.091Z,1020.75
2023-01-27T03:53:01.477Z,1020.74
2023-01-27T03:54:01.598Z,1020.71
2023-01-27T03:55:01.114Z,1020.74
2023-01-27T03:56:01.139Z,1020.71
2023-01-27T03:57:01.319Z,1020.73
2023-01-27T03:58:02.659Z,1020.71
2023-01-27T03:59:01.496Z,1020.68
2023-01-27T04:00:02.597Z,1020.73
2023-01-27T04:01:01.076Z,1020.69
2023-01-27T04:02:01.152Z,1020.64
2023-01-27T04:03:04.218Z,1020.69
2023-01-27T04:04:00.916Z,1020.69
2023-01-27T04:05:01.551Z,1020.68
2023-01-27T04:06:01.430Z,1020.7
2023-01-27T04:07:01.184Z,1020.68
2023-01-27T04:08:08.038Z,1020.67
2023-01-27T04:09:00.925Z,1020.7
2023-01-27T04:10:01.413Z,1020.72
2023-01-27T04:11:01.126Z,1020.69
2023-01-27T04:12:01.234Z,1020.68
2023-01-27T04:13:11.159Z,1020.67
2023-01-27T04:14:01.681Z,1020.64
2023-01-27T04:15:01.066Z,1020.64
2023-01-27T04:16:01.204Z,1020.59
2023-01-27T04:17:01.444Z,1020.63
2023-01-27T04:18:14.096Z,1020.66
2023-01-27T04:19:01.244Z,1020.66
2023-01-27T04:20:01.070Z,1020.67
2023-01-27T04:21:00.759Z,1020.66
2023-01-27T04:22:00.721Z,1020.65
2023-01-27T04:23:00.467Z,1020.65
2023-01-27T04:24:01.096Z,1020.68
2023-01-27T04:25:01.225Z,1020.66
2023-01-27T04:26:01.056Z,1020.6
2023-01-27T04:27:01.058Z,1020.62
2023-01-27T04:28:01.117Z,1020.66
2023-01-27T04:29:01.123Z,1020.62
2023-01-27T04:30:01.479Z,1020.67
2023-01-27T04:31:01.602Z,1020.66
2023-01-27T04:32:01.173Z,1020.65
2023-01-27T04:33:01.348Z,1020.67
2023-01-27T04:34:01.691Z,1020.67
2023-01-27T04:35:02.178Z,1020.69
2023-01-27T04:36:01.710Z,1020.69
2023-01-27T04:37:01.366Z,1020.67
2023-01-27T04:38:02.241Z,1020.67
2023-01-27T04:39:01.295Z,1020.72
2023-01-27T04:40:01.258Z,1020.76
2023-01-27T04:41:01.353Z,1020.74
2023-01-27T04:42:02.019Z,1020.78
2023-01-27T04:43:02.018Z,1020.75
2023-01-27T04:44:01.049Z,1020.81
2023-01-27T04:45:01.466Z,1020.78
2023-01-27T04:46:02.462Z,1020.79
2023-01-27T04:47:01.210Z,1020.84
2023-01-27T04:48:01.165Z,1020.81
2023-01-27T04:49:01.060Z,1020.76
2023-01-27T04:50:01.152Z,1020.76
2023-01-27T04:51:01.162Z,1020.79
2023-01-27T04:52:01.128Z,1020.79
2023-01-27T04:53:01.069Z,1020.78
2023-01-27T04:54:01.444Z,1020.84
2023-01-27T04:55:01.241Z,1020.81
2023-01-27T04:56:01.080Z,1020.87
2023-01-27T04:57:01.130Z,1020.84
2023-01-27T04:58:01.087Z,1020.89
2023-01-27T04:59:01.015Z,1020.84
2023-01-27T05:00:01.196Z,1020.84
2023-01-27T05:01:01.111Z,1020.86
2023-01-27T05:02:01.623Z,1020.88
2023-01-27T05:03:01.711Z,1020.88
2023-01-27T05:04:01.819Z,1020.92
2023-01-27T05:05:01.827Z,1020.87
2023-01-27T05:06:01.065Z,1020.89
2023-01-27T05:07:01.069Z,1020.92
2023-01-27T05:08:01.157Z,1020.97
2023-01-27T05:09:01.492Z,1020.96
2023-01-27T05:10:01.501Z,1020.98
2023-01-27T05:11:01.725Z,1020.94
2023-01-27T05:12:01.093Z,1020.94
2023-01-27T05:13:01.348Z,1020.93
2023-01-27T05:14:00.982Z,1020.91
2023-01-27T05:15:01.075Z,1020.88
2023-01-27T05:16:01.256Z,1020.92
2023-01-27T05:17:01.180Z,1020.9
2023-01-27T05:18:01.121Z,1020.91
2023-01-27T05:19:01.230Z,1020.96
2023-01-27T05:20:02.093Z,1020.97
2023-01-27T05:21:01.152Z,1020.96
2023-01-27T05:22:01.157Z,1020.98
2023-01-27T05:23:01.150Z,1020.98
2023-01-27T05:24:01.322Z,1021.04
2023-01-27T05:25:01.601Z,1021.07
2023-01-27T05:26:01.485Z,1021.07
2023-01-27T05:27:01.664Z,1021.07
2023-01-27T05:28:02.123Z,1021.1
2023-01-27T05:29:01.759Z,1021.1
2023-01-27T05:30:02.883Z,1021.1
2023-01-27T05:31:01.915Z,1021.06
2023-01-27T05:32:01.877Z,1021.06
2023-01-27T05:33:01.133Z,1021.06
2023-01-27T05:34:01.173Z,1021.08
2023-01-27T05:35:00.744Z,1021.13
2023-01-27T05:36:00.444Z,1021.1
2023-01-27T05:37:00.015Z,1021.13
2023-01-27T05:37:59.718Z,1021.2
2023-01-27T05:39:03.030Z,1021.19
2023-01-27T05:40:01.463Z,1021.21
2023-01-27T05:41:01.079Z,1021.22
2023-01-27T05:42:01.058Z,1021.22
2023-01-27T05:43:01.050Z,1021.22
2023-01-27T05:44:04.794Z,1021.14
2023-01-27T05:45:01.431Z,1021.2
2023-01-27T05:46:01.743Z,1021.16
2023-01-27T05:47:01.218Z,1021.22
2023-01-27T05:48:02.157Z,1021.22
2023-01-27T05:49:08.304Z,1021.24
2023-01-27T05:50:01.806Z,1021.25
2023-01-27T05:51:02.558Z,1021.24
2023-01-27T05:52:01.569Z,1021.3
2023-01-27T05:53:01.170Z,1021.25
2023-01-27T05:54:09.793Z,1021.26
2023-01-27T05:55:01.150Z,1021.22
2023-01-27T05:56:01.176Z,1021.2
2023-01-27T05:57:01.163Z,1021.23
2023-01-27T05:58:01.063Z,1021.17
2023-01-27T05:59:14.194Z,1021.16
2023-01-27T06:00:01.100Z,1021.21
2023-01-27T06:01:01.080Z,1021.14
2023-01-27T06:02:01.094Z,1021.18
2023-01-27T06:03:01.118Z,1021.19
2023-01-27T06:04:15.544Z,1021.14
2023-01-27T06:05:01.054Z,1021.2
2023-01-27T06:06:01.136Z,1021.17
2023-01-27T06:07:01.115Z,1021.21
2023-01-27T06:08:01.168Z,1021.19
2023-01-27T06:09:01.050Z,1021.22
2023-01-27T06:10:01.090Z,1021.2
2023-01-27T06:11:01.164Z,1021.27
2023-01-27T06:12:01.140Z,1021.26
2023-01-27T06:13:01.167Z,1021.3
2023-01-27T06:14:01.495Z,1021.29
2023-01-27T06:15:01.040Z,1021.24
2023-01-27T06:16:01.109Z,1021.26
2023-01-27T06:17:01.078Z,1021.28
2023-01-27T06:18:01.083Z,1021.26
2023-01-27T06:19:01.197Z,1021.3
2023-01-27T06:20:00.703Z,1021.24
2023-01-27T06:21:00.385Z,1021.27
2023-01-27T06:22:00.172Z,1021.27
2023-01-27T06:22:59.989Z,1021.31
2023-01-27T06:23:59.819Z,1021.3
2023-01-27T06:25:01.602Z,1021.35
2023-01-27T06:26:01.333Z,1021.32
2023-01-27T06:27:01.397Z,1021.36
2023-01-27T06:28:01.948Z,1021.35
2023-01-27T06:29:01.115Z,1021.37
2023-01-27T06:30:00.754Z,1021.43
2023-01-27T06:31:01.206Z,1021.42
2023-01-27T06:32:00.293Z,1021.42
2023-01-27T06:33:00.216Z,1021.44
2023-01-27T06:33:59.924Z,1021.46
2023-01-27T06:34:59.520Z,1021.43
2023-01-27T06:36:01.613Z,1021.44
2023-01-27T06:37:01.901Z,1021.46
2023-01-27T06:38:01.106Z,1021.42
2023-01-27T06:39:01.220Z,1021.42
2023-01-27T06:40:02.472Z,1021.44
2023-01-27T06:41:01.815Z,1021.43
2023-01-27T06:42:01.402Z,1021.46
2023-01-27T06:43:02.060Z,1021.47
2023-01-27T06:44:01.594Z,1021.44
2023-01-27T06:45:01.293Z,1021.46
2023-01-27T06:46:04.393Z,1021.44
2023-01-27T06:47:01.175Z,1021.46
2023-01-27T06:48:01.203Z,1021.41
2023-01-27T06:49:01.079Z,1021.45
2023-01-27T06:50:01.085Z,1021.45
2023-01-27T06:51:01.409Z,1021.49
2023-01-27T06:52:01.380Z,1021.46
2023-01-27T06:53:01.174Z,1021.45
2023-01-27T06:54:01.256Z,1021.44
2023-01-27T06:55:01.478Z,1021.45
2023-01-27T06:56:01.395Z,1021.47
2023-01-27T06:57:02.053Z,1021.51
2023-01-27T06:58:01.063Z,1021.46
2023-01-27T06:59:01.864Z,1021.5
2023-01-27T07:00:01.801Z,1021.51
2023-01-27T07:01:03.086Z,1021.48
2023-01-27T07:02:01.586Z,1021.49
2023-01-27T07:03:01.052Z,1021.52
2023-01-27T07:04:00.753Z,1021.57
2023-01-27T07:05:00.726Z,1021.52
2023-01-27T07:06:00.389Z,1021.51
2023-01-27T07:07:00.115Z,1021.56
2023-01-27T07:07:59.756Z,1021.54
2023-01-27T07:09:01.407Z,1021.56
2023-01-27T07:10:02.454Z,1021.56
2023-01-27T07:11:05.038Z,1021.57
2023-01-27T07:12:01.268Z,1021.59
2023-01-27T07:13:01.174Z,1021.58
2023-01-27T07:14:01.128Z,1021.63
2023-01-27T07:15:01.415Z,1021.59
2023-01-27T07:16:02.450Z,1021.62
2023-01-27T07:17:01.147Z,1021.62
2023-01-27T07:18:01.155Z,1021.59
2023-01-27T07:19:01.319Z,1021.58
2023-01-27T07:20:00.973Z,1021.59
2023-01-27T07:21:01.147Z,1021.64
2023-01-27T07:22:03.884Z,1021.61
2023-01-27T07:23:01.102Z,1021.63
2023-01-27T07:24:00.705Z,1021.61
2023-01-27T07:25:00.370Z,1021.68
2023-01-27T07:26:00.970Z,1021.67
2023-01-27T07:27:01.125Z,1021.63
2023-01-27T07:28:01.179Z,1021.67
2023-01-27T07:29:01.129Z,1021.67
2023-01-27T07:30:01.209Z,1021.63
2023-01-27T07:31:01.361Z,1021.64
2023-01-27T07:32:01.609Z,1021.61
2023-01-27T07:33:01.224Z,1021.65
2023-01-27T07:34:01.224Z,1021.63
2023-01-27T07:35:03.279Z,1021.63
2023-01-27T07:36:02.496Z,1021.62
2023-01-27T07:37:01.180Z,1021.64
2023-01-27T07:38:01.377Z,1021.64
2023-01-27T07:39:01.375Z,1021.65
2023-01-27T07:40:07.385Z,1021.63
2023-01-27T07:41:02.373Z,1021.66
2023-01-27T07:42:01.929Z,1021.67
2023-01-27T07:43:02.042Z,1021.71
2023-01-27T07:44:00.596Z,1021.73
2023-01-27T07:45:09.021Z,1021.71
2023-01-27T07:46:02.161Z,1021.73
2023-01-27T07:47:01.510Z,1021.79
2023-01-27T07:48:01.232Z,1021.81
2023-01-27T07:49:02.387Z,1021.83
2023-01-27T07:50:13.991Z,1021.86
2023-01-27T07:51:01.340Z,1021.88
2023-01-27T07:52:02.600Z,1021.92
2023-01-27T07:53:02.010Z,1021.94
2023-01-27T07:54:02.291Z,1021.95
2023-01-27T07:55:16.683Z,1021.95
2023-01-27T07:56:02.136Z,1021.9
2023-01-27T07:57:01.874Z,1021.97
2023-01-27T07:58:01.155Z,1021.94
2023-01-27T07:59:01.106Z,1021.93
2023-01-27T08:00:01.134Z,1021.9
2023-01-27T08:01:01.291Z,1021.86
2023-01-27T08:02:01.123Z,1021.9
2023-01-27T08:03:01.190Z,1021.88
2023-01-27T08:04:00.824Z,1021.94
2023-01-27T08:05:00.425Z,1021.95
2023-01-27T08:06:00.124Z,1021.96
2023-01-27T08:06:59.745Z,1021.94
2023-01-27T08:08:01.338Z,1021.95
2023-01-27T08:09:02.058Z,1021.98
2023-01-27T08:10:02.078Z,1021.96
2023-01-27T08:11:01.390Z,1022.01
2023-01-27T08:12:01.239Z,1022
2023-01-27T08:13:01.321Z,1021.99
2023-01-27T08:14:01.164Z,1022.02
2023-01-27T08:15:01.115Z,1022.03
2023-01-27T08:16:01.115Z,1022.02
2023-01-27T08:17:01.116Z,1022.03
2023-01-27T08:18:01.122Z,1022.01
2023-01-27T08:19:01.168Z,1022.09
2023-01-27T08:20:01.388Z,1022.06
2023-01-27T08:21:02.520Z,1022.1
2023-01-27T08:22:01.068Z,1022.06
2023-01-27T08:23:01.146Z,1022.1
2023-01-27T08:24:00.947Z,1022.05
2023-01-27T08:25:01.064Z,1022.06
2023-01-27T08:26:00.592Z,1022.04
2023-01-27T08:27:00.268Z,1022.09
2023-01-27T08:27:59.946Z,1022.13
2023-01-27T08:28:59.538Z,1022.1
2023-01-27T08:30:01.127Z,1022.1
2023-01-27T08:31:02.041Z,1022.09
2023-01-27T08:32:00.795Z,1022.09
2023-01-27T08:33:00.499Z,1022.04
2023-01-27T08:34:00.285Z,1022.15
2023-01-27T08:35:01.667Z,1022.13
2023-01-27T08:36:01.584Z,1022.18
2023-01-27T08:37:01.234Z,1022.16
2023-01-27T08:38:01.177Z,1022.15
2023-01-27T08:39:01.163Z,1022.19
2023-01-27T08:40:01.809Z,1022.17
2023-01-27T08:41:01.236Z,1022.1
2023-01-27T08:42:01.517Z,1022.11
2023-01-27T08:43:03.942Z,1022.11
2023-01-27T08:44:01.522Z,1022.11
2023-01-27T08:45:02.151Z,1022.15
2023-01-27T08:46:04.275Z,1022.18
2023-01-27T08:47:01.893Z,1022.18
2023-01-27T08:48:02.024Z,1022.2
2023-01-27T08:49:01.169Z,1022.2
2023-01-27T08:50:01.660Z,1022.17
2023-01-27T08:51:01.171Z,1022.23
2023-01-27T08:52:01.415Z,1022.21
2023-01-27T08:53:01.151Z,1022.18
2023-01-27T08:54:01.144Z,1022.2
2023-01-27T08:55:01.135Z,1022.2
2023-01-27T08:56:01.181Z,1022.2
2023-01-27T08:57:01.173Z,1022.26
2023-01-27T08:58:01.236Z,1022.27
2023-01-27T08:59:01.281Z,1022.27
2023-01-27T09:00:01.083Z,1022.3
2023-01-27T09:01:02.314Z,1022.33
2023-01-27T09:02:01.188Z,1022.29
2023-01-27T09:03:01.790Z,1022.27
2023-01-27T09:04:00.864Z,1022.33
2023-01-27T09:05:01.130Z,1022.25
2023-01-27T09:06:01.124Z,1022.29
2023-01-27T09:07:01.145Z,1022.29
2023-01-27T09:08:01.818Z,1022.33
2023-01-27T09:09:01.194Z,1022.37
2023-01-27T09:10:13.788Z,1022.32
2023-01-27T09:11:01.719Z,1022.34
2023-01-27T09:12:01.294Z,1022.35
2023-01-27T09:13:02.876Z,1022.35
2023-01-27T09:14:01.558Z,1022.33
2023-01-27T09:15:01.068Z,1022.35
2023-01-27T09:16:04.361Z,1022.34
2023-01-27T09:17:01.071Z,1022.32
2023-01-27T09:18:01.080Z,1022.32
2023-01-27T09:19:01.091Z,1022.36
2023-01-27T09:20:01.284Z,1022.38
2023-01-27T09:21:06.864Z,1022.37
2023-01-27T09:22:01.123Z,1022.32
2023-01-27T09:23:01.118Z,1022.32
2023-01-27T09:24:01.010Z,1022.32
2023-01-27T09:25:01.139Z,1022.33
2023-01-27T09:26:09.204Z,1022.34
2023-01-27T09:27:02.577Z,1022.3
2023-01-27T09:28:01.991Z,1022.38
2023-01-27T09:29:01.209Z,1022.39
2023-01-27T09:30:08.133Z,1022.41
2023-01-27T09:31:12.912Z,1022.42
2023-01-27T09:32:01.123Z,1022.4
2023-01-27T09:33:01.383Z,1022.4
2023-01-27T09:34:01.100Z,1022.35
2023-01-27T09:35:01.718Z,1022.38
2023-01-27T09:36:15.008Z,1022.35
2023-01-27T09:37:01.546Z,1022.36
2023-01-27T09:38:01.311Z,1022.33
2023-01-27T09:39:01.345Z,1022.33
2023-01-27T09:40:01.337Z,1022.31
2023-01-27T09:41:16.790Z,1022.34
2023-01-27T09:42:01.138Z,1022.37
2023-01-27T09:43:01.127Z,1022.35
2023-01-27T09:44:01.177Z,1022.33
2023-01-27T09:45:01.299Z,1022.36
2023-01-27T09:46:01.254Z,1022.35
2023-01-27T09:47:01.986Z,1022.31
2023-01-27T09:48:00.984Z,1022.39
2023-01-27T09:49:01.077Z,1022.31
2023-01-27T09:50:01.088Z,1022.31
2023-01-27T09:51:03.273Z,1022.31
2023-01-27T09:52:02.167Z,1022.29
2023-01-27T09:53:01.055Z,1022.27
2023-01-27T09:54:01.105Z,1022.27
2023-01-27T09:55:01.108Z,1022.27
2023-01-27T09:56:01.135Z,1022.26
2023-01-27T09:57:01.143Z,1022.27
2023-01-27T09:58:01.125Z,1022.28
2023-01-27T09:59:01.187Z,1022.33
2023-01-27T10:00:01.705Z,1022.33
2023-01-27T10:01:01.188Z,1022.35
2023-01-27T10:02:01.159Z,1022.34
2023-01-27T10:03:01.199Z,1022.38
2023-01-27T10:04:01.060Z,1022.38
2023-01-27T10:05:01.069Z,1022.34
2023-01-27T10:06:01.072Z,1022.3
2023-01-27T10:07:01.314Z,1022.35
2023-01-27T10:08:01.356Z,1022.27
2023-01-27T10:09:01.441Z,1022.32
2023-01-27T10:10:01.547Z,1022.31
2023-01-27T10:11:01.216Z,1022.29
2023-01-27T10:12:01.136Z,1022.33
2023-01-27T10:13:01.316Z,1022.32
2023-01-27T10:14:01.186Z,1022.32
2023-01-27T10:15:01.144Z,1022.34
2023-01-27T10:16:01.184Z,1022.32
2023-01-27T10:17:01.147Z,1022.31
2023-01-27T10:18:01.174Z,1022.3
2023-01-27T10:19:01.577Z,1022.32
2023-01-27T10:20:01.818Z,1022.33
2023-01-27T10:21:02.104Z,1022.31
2023-01-27T10:22:04.606Z,1022.38
2023-01-27T10:23:04.300Z,1022.37
2023-01-27T10:24:01.806Z,1022.41
2023-01-27T10:25:02.035Z,1022.36
2023-01-27T10:26:01.099Z,1022.38
2023-01-27T10:27:01.127Z,1022.36
2023-01-27T10:28:01.024Z,1022.3
2023-01-27T10:29:01.256Z,1022.31
2023-01-27T10:30:01.345Z,1022.27
2023-01-27T10:31:02.163Z,1022.25
2023-01-27T10:32:02.690Z,1022.24
2023-01-27T10:33:01.777Z,1022.26
2023-01-27T10:34:01.540Z,1022.23
2023-01-27T10:35:01.287Z,1022.16
2023-01-27T10:36:01.086Z,1022.17
2023-01-27T10:37:01.096Z,1022.12
2023-01-27T10:38:01.106Z,1022.15
2023-01-27T10:39:01.100Z,1022.19
2023-01-27T10:40:01.111Z,1022.21
2023-01-27T10:41:00.898Z,1022.21
2023-01-27T10:42:00.615Z,1022.29
2023-01-27T10:43:00.287Z,1022.28
2023-01-27T10:43:59.970Z,1022.3
2023-01-27T10:44:59.677Z,1022.36
2023-01-27T10:46:01.388Z,1022.38
2023-01-27T10:47:01.247Z,1022.41
2023-01-27T10:48:01.953Z,1022.46
2023-01-27T10:49:01.029Z,1022.4
2023-01-27T10:50:01.153Z,1022.46
2023-01-27T10:51:01.151Z,1022.47
2023-01-27T10:52:01.179Z,1022.5
2023-01-27T10:53:01.087Z,1022.49
2023-01-27T10:54:01.683Z,1022.52
2023-01-27T10:55:01.123Z,1022.52
2023-01-27T10:56:00.880Z,1022.56
2023-01-27T10:57:00.620Z,1022.52
2023-01-27T10:58:00.582Z,1022.42
2023-01-27T10:59:02.734Z,1022.37
2023-01-27T11:00:27.575Z,1022.4
2023-01-27T11:02:02.849Z,1022.38
2023-01-27T11:03:01.412Z,1022.38
2023-01-27T11:04:02.086Z,1022.4
2023-01-27T11:05:02.582Z,1022.37
2023-01-27T11:06:02.060Z,1022.44
2023-01-27T11:07:04.809Z,1022.37
2023-01-27T11:08:01.268Z,1022.45
2023-01-27T11:09:01.300Z,1022.42
2023-01-27T11:10:00.770Z,1022.4
2023-01-27T11:11:01.110Z,1022.44
2023-01-27T11:12:08.573Z,1022.46
2023-01-27T11:13:01.812Z,1022.42
2023-01-27T11:14:00.702Z,1022.45
2023-01-27T11:15:00.396Z,1022.46
2023-01-27T11:16:00.188Z,1022.44
2023-01-27T11:17:10.506Z,1022.46
2023-01-27T11:18:02.144Z,1022.43
2023-01-27T11:19:01.524Z,1022.43
2023-01-27T11:20:01.149Z,1022.4
2023-01-27T11:21:01.139Z,1022.4
2023-01-27T11:22:14.348Z,1022.37
2023-01-27T11:23:01.256Z,1022.42
2023-01-27T11:24:01.169Z,1022.44
2023-01-27T11:25:07.952Z,1022.42
2023-01-27T11:26:01.078Z,1022.41
2023-01-27T11:27:16.748Z,1022.43
2023-01-27T11:28:01.079Z,1022.45
2023-01-27T11:29:01.104Z,1022.42
2023-01-27T11:30:00.928Z,1022.4
2023-01-27T11:31:01.174Z,1022.45
2023-01-27T11:32:01.154Z,1022.45
2023-01-27T11:33:01.318Z,1022.45
2023-01-27T11:34:01.228Z,1022.44
2023-01-27T11:35:01.861Z,1022.44
2023-01-27T11:36:02.052Z,1022.46
2023-01-27T11:37:01.060Z,1022.41
2023-01-27T11:38:15.100Z,1022.44
2023-01-27T11:39:01.193Z,1022.38
2023-01-27T11:40:01.973Z,1022.42
2023-01-27T11:41:01.653Z,1022.43
2023-01-27T11:42:01.971Z,1022.38
2023-01-27T11:43:02.147Z,1022.38
2023-01-27T11:44:01.493Z,1022.41
2023-01-27T11:45:01.355Z,1022.36
2023-01-27T11:46:01.201Z,1022.35
2023-01-27T11:47:01.139Z,1022.31
2023-01-27T11:48:01.793Z,1022.38
2023-01-27T11:49:01.148Z,1022.31
2023-01-27T11:50:00.896Z,1022.33
2023-01-27T11:51:01.433Z,1022.35
2023-01-27T11:52:01.531Z,1022.33
2023-01-27T11:53:03.051Z,1022.35
2023-01-27T11:54:01.294Z,1022.34
2023-01-27T11:55:01.217Z,1022.34
2023-01-27T11:56:01.178Z,1022.29
2023-01-27T11:57:01.175Z,1022.34
2023-01-27T11:58:01.116Z,1022.31
2023-01-27T11:59:01.398Z,1022.38
2023-01-27T12:00:01.547Z,1022.34
2023-01-27T12:01:01.317Z,1022.34
2023-01-27T12:02:01.444Z,1022.3
2023-01-27T12:03:01.124Z,1022.28
2023-01-27T12:04:01.190Z,1022.29
2023-01-27T12:05:01.121Z,1022.19
2023-01-27T12:06:01.140Z,1022.25
2023-01-27T12:07:01.139Z,1022.22
2023-01-27T12:08:01.526Z,1022.26
2023-01-27T12:09:01.164Z,1022.19